sensor_id;sensor_type;location;lat;lon;timestamp;temperature;humidity
18575;DHT22;9417;16.484;102.872;2023-07-13T00:01:50;27.10;95.20
18575;DHT22;9417;16.484;102.872;2023-07-13T00:03:57;27.20;94.50
18575;DHT22;9417;16.484;102.872;2023-07-13T00:06:06;27.30;94.30
18575;DHT22;9417;16.484;102.872;2023-07-13T00:08:14;27.50;93.50
18575;DHT22;9417;16.484;102.872;2023-07-13T00:10:22;27.50;92.50
18575;DHT22;9417;16.484;102.872;2023-07-13T00:12:30;27.50;92.40
18575;DHT22;9417;16.484;102.872;2023-07-13T00:14:38;27.50;92.50
18575;DHT22;9417;16.484;102.872;2023-07-13T00:16:45;27.40;92.40
18575;DHT22;9417;16.484;102.872;2023-07-13T00:18:52;27.40;92.40
18575;DHT22;9417;16.484;102.872;2023-07-13T00:20:59;27.40;92.10
18575;DHT22;9417;16.484;102.872;2023-07-13T00:23:12;27.50;92.10
18575;DHT22;9417;16.484;102.872;2023-07-13T00:25:19;27.50;91.80
18575;DHT22;9417;16.484;102.872;2023-07-13T00:27:26;27.50;91.70
18575;DHT22;9417;16.484;102.872;2023-07-13T00:29:34;27.60;91.30
18575;DHT22;9417;16.484;102.872;2023-07-13T00:31:44;27.60;90.90
18575;DHT22;9417;16.484;102.872;2023-07-13T00:33:52;27.60;90.40
18575;DHT22;9417;16.484;102.872;2023-07-13T00:35:59;27.70;90.10
18575;DHT22;9417;16.484;102.872;2023-07-13T00:38:05;27.70;90.10
18575;DHT22;9417;16.484;102.872;2023-07-13T00:40:15;27.70;89.90
18575;DHT22;9417;16.484;102.872;2023-07-13T00:42:23;27.80;89.70
18575;DHT22;9417;16.484;102.872;2023-07-13T00:44:30;27.70;89.40
18575;DHT22;9417;16.484;102.872;2023-07-13T00:46:37;27.80;89.30
18575;DHT22;9417;16.484;102.872;2023-07-13T00:48:46;27.80;89.20
18575;DHT22;9417;16.484;102.872;2023-07-13T00:50:55;27.90;89.20
18575;DHT22;9417;16.484;102.872;2023-07-13T00:53:03;28.00;89.20
18575;DHT22;9417;16.484;102.872;2023-07-13T00:55:14;28.00;89.10
18575;DHT22;9417;16.484;102.872;2023-07-13T00:57:21;28.00;88.60
18575;DHT22;9417;16.484;102.872;2023-07-13T00:59:28;28.10;88.40
18575;DHT22;9417;16.484;102.872;2023-07-13T01:01:37;28.20;88.30
18575;DHT22;9417;16.484;102.872;2023-07-13T01:03:45;28.20;88.30
18575;DHT22;9417;16.484;102.872;2023-07-13T01:05:53;28.30;88.30
18575;DHT22;9417;16.484;102.872;2023-07-13T01:08:01;28.40;88.10
18575;DHT22;9417;16.484;102.872;2023-07-13T01:10:10;28.40;87.90
18575;DHT22;9417;16.484;102.872;2023-07-13T01:12:19;28.40;87.40
18575;DHT22;9417;16.484;102.872;2023-07-13T01:14:26;28.50;86.70
18575;DHT22;9417;16.484;102.872;2023-07-13T01:16:34;28.60;86.40
18575;DHT22;9417;16.484;102.872;2023-07-13T01:18:42;28.70;85.60
18575;DHT22;9417;16.484;102.872;2023-07-13T01:20:53;28.70;85.10
18575;DHT22;9417;16.484;102.872;2023-07-13T01:23:00;28.70;85.00
18575;DHT22;9417;16.484;102.872;2023-07-13T01:25:07;28.80;84.70
18575;DHT22;9417;16.484;102.872;2023-07-13T01:27:20;28.90;84.40
18575;DHT22;9417;16.484;102.872;2023-07-13T01:29:28;28.90;82.40
18575;DHT22;9417;16.484;102.872;2023-07-13T01:31:34;28.90;82.30
18575;DHT22;9417;16.484;102.872;2023-07-13T01:33:42;29.00;82.10
18575;DHT22;9417;16.484;102.872;2023-07-13T01:35:51;29.00;81.80
18575;DHT22;9417;16.484;102.872;2023-07-13T01:37:58;29.00;81.20
18575;DHT22;9417;16.484;102.872;2023-07-13T01:40:06;29.10;81.20
18575;DHT22;9417;16.484;102.872;2023-07-13T01:42:13;29.20;81.30
18575;DHT22;9417;16.484;102.872;2023-07-13T01:44:20;29.30;81.00
18575;DHT22;9417;16.484;102.872;2023-07-13T01:46:28;29.30;80.90
18575;DHT22;9417;16.484;102.872;2023-07-13T01:48:35;29.40;80.60
18575;DHT22;9417;16.484;102.872;2023-07-13T01:50:43;29.40;80.20
18575;DHT22;9417;16.484;102.872;2023-07-13T01:52:52;29.50;80.00
18575;DHT22;9417;16.484;102.872;2023-07-13T01:54:59;29.50;79.90
18575;DHT22;9417;16.484;102.872;2023-07-13T01:57:06;29.60;80.00
18575;DHT22;9417;16.484;102.872;2023-07-13T01:59:13;29.60;80.10
18575;DHT22;9417;16.484;102.872;2023-07-13T02:01:20;29.60;79.70
18575;DHT22;9417;16.484;102.872;2023-07-13T02:03:30;29.70;79.60
18575;DHT22;9417;16.484;102.872;2023-07-13T02:05:37;29.70;79.70
18575;DHT22;9417;16.484;102.872;2023-07-13T02:07:45;29.80;79.60
18575;DHT22;9417;16.484;102.872;2023-07-13T02:09:53;29.80;79.30
18575;DHT22;9417;16.484;102.872;2023-07-13T02:12:01;29.90;79.20
18575;DHT22;9417;16.484;102.872;2023-07-13T02:14:09;29.90;79.10
18575;DHT22;9417;16.484;102.872;2023-07-13T02:16:16;29.90;79.20
18575;DHT22;9417;16.484;102.872;2023-07-13T02:18:23;30.00;79.30
18575;DHT22;9417;16.484;102.872;2023-07-13T02:20:31;30.00;78.80
18575;DHT22;9417;16.484;102.872;2023-07-13T02:22:38;30.10;78.60
18575;DHT22;9417;16.484;102.872;2023-07-13T02:24:45;30.10;78.50
18575;DHT22;9417;16.484;102.872;2023-07-13T02:26:56;30.20;78.70
18575;DHT22;9417;16.484;102.872;2023-07-13T02:29:03;30.30;78.40
18575;DHT22;9417;16.484;102.872;2023-07-13T02:31:11;30.30;77.50
18575;DHT22;9417;16.484;102.872;2023-07-13T02:33:21;30.40;77.20
18575;DHT22;9417;16.484;102.872;2023-07-13T02:35:28;30.50;77.10
18575;DHT22;9417;16.484;102.872;2023-07-13T02:37:35;30.50;77.10
18575;DHT22;9417;16.484;102.872;2023-07-13T02:39:42;30.60;77.10
18575;DHT22;9417;16.484;102.872;2023-07-13T02:41:49;30.70;76.70
18575;DHT22;9417;16.484;102.872;2023-07-13T02:43:58;30.70;76.40
18575;DHT22;9417;16.484;102.872;2023-07-13T02:46:08;30.80;75.80
18575;DHT22;9417;16.484;102.872;2023-07-13T02:48:16;30.90;75.70
18575;DHT22;9417;16.484;102.872;2023-07-13T02:50:23;30.90;75.50
18575;DHT22;9417;16.484;102.872;2023-07-13T02:52:30;31.00;75.40
18575;DHT22;9417;16.484;102.872;2023-07-13T02:54:37;31.00;75.00
18575;DHT22;9417;16.484;102.872;2023-07-13T02:56:44;31.10;74.90
18575;DHT22;9417;16.484;102.872;2023-07-13T02:58:52;31.20;74.30
18575;DHT22;9417;16.484;102.872;2023-07-13T03:01:05;31.20;74.40
18575;DHT22;9417;16.484;102.872;2023-07-13T03:03:13;31.30;74.20
18575;DHT22;9417;16.484;102.872;2023-07-13T03:05:21;31.40;73.70
18575;DHT22;9417;16.484;102.872;2023-07-13T03:07:28;31.50;73.70
18575;DHT22;9417;16.484;102.872;2023-07-13T03:09:36;31.60;73.60
18575;DHT22;9417;16.484;102.872;2023-07-13T03:11:44;31.70;73.40
18575;DHT22;9417;16.484;102.872;2023-07-13T03:13:59;31.70;72.70
18575;DHT22;9417;16.484;102.872;2023-07-13T03:16:12;31.80;72.60
18575;DHT22;9417;16.484;102.872;2023-07-13T03:18:25;31.90;72.10
18575;DHT22;9417;16.484;102.872;2023-07-13T03:20:36;32.00;71.80
18575;DHT22;9417;16.484;102.872;2023-07-13T03:22:44;32.00;71.30
18575;DHT22;9417;16.484;102.872;2023-07-13T03:24:54;32.10;70.70
18575;DHT22;9417;16.484;102.872;2023-07-13T03:27:03;32.20;70.80
18575;DHT22;9417;16.484;102.872;2023-07-13T03:29:14;32.20;70.30
18575;DHT22;9417;16.484;102.872;2023-07-13T03:31:25;32.30;70.10
18575;DHT22;9417;16.484;102.872;2023-07-13T03:33:33;32.30;69.60
18575;DHT22;9417;16.484;102.872;2023-07-13T03:35:41;32.40;69.50
18575;DHT22;9417;16.484;102.872;2023-07-13T03:37:47;32.40;69.90
18575;DHT22;9417;16.484;102.872;2023-07-13T03:39:56;32.50;70.40
18575;DHT22;9417;16.484;102.872;2023-07-13T03:42:07;32.50;69.00
18575;DHT22;9417;16.484;102.872;2023-07-13T03:44:15;32.40;69.50
18575;DHT22;9417;16.484;102.872;2023-07-13T03:46:29;32.30;70.60
18575;DHT22;9417;16.484;102.872;2023-07-13T03:48:36;32.10;71.10
18575;DHT22;9417;16.484;102.872;2023-07-13T03:50:42;32.00;71.40
18575;DHT22;9417;16.484;102.872;2023-07-13T03:52:49;32.00;71.70
18575;DHT22;9417;16.484;102.872;2023-07-13T03:54:56;32.10;71.80
18575;DHT22;9417;16.484;102.872;2023-07-13T03:57:04;32.20;70.80
18575;DHT22;9417;16.484;102.872;2023-07-13T03:59:12;32.30;70.70
18575;DHT22;9417;16.484;102.872;2023-07-13T04:01:22;32.30;71.10
18575;DHT22;9417;16.484;102.872;2023-07-13T04:03:33;32.40;71.00
18575;DHT22;9417;16.484;102.872;2023-07-13T04:05:41;32.40;70.90
18575;DHT22;9417;16.484;102.872;2023-07-13T04:07:48;32.50;71.20
18575;DHT22;9417;16.484;102.872;2023-07-13T04:09:56;32.60;71.50
18575;DHT22;9417;16.484;102.872;2023-07-13T04:12:03;32.70;70.00
18575;DHT22;9417;16.484;102.872;2023-07-13T04:14:11;32.80;70.00
18575;DHT22;9417;16.484;102.872;2023-07-13T04:16:18;32.80;69.50
18575;DHT22;9417;16.484;102.872;2023-07-13T04:18:26;32.90;69.20
18575;DHT22;9417;16.484;102.872;2023-07-13T04:20:34;33.00;68.20
18575;DHT22;9417;16.484;102.872;2023-07-13T04:22:42;32.80;67.70
18575;DHT22;9417;16.484;102.872;2023-07-13T04:24:49;32.80;69.20
18575;DHT22;9417;16.484;102.872;2023-07-13T04:26:56;32.90;68.70
18575;DHT22;9417;16.484;102.872;2023-07-13T04:29:05;32.90;68.90
18575;DHT22;9417;16.484;102.872;2023-07-13T04:31:12;32.90;69.40
18575;DHT22;9417;16.484;102.872;2023-07-13T04:33:20;33.00;69.20
18575;DHT22;9417;16.484;102.872;2023-07-13T04:35:28;33.10;69.30
18575;DHT22;9417;16.484;102.872;2023-07-13T04:37:37;33.30;68.90
18575;DHT22;9417;16.484;102.872;2023-07-13T04:39:44;33.40;68.30
18575;DHT22;9417;16.484;102.872;2023-07-13T04:41:51;33.50;67.80
18575;DHT22;9417;16.484;102.872;2023-07-13T04:44:00;33.50;67.20
18575;DHT22;9417;16.484;102.872;2023-07-13T04:46:10;33.60;67.20
18575;DHT22;9417;16.484;102.872;2023-07-13T04:48:18;33.70;66.60
18575;DHT22;9417;16.484;102.872;2023-07-13T04:50:25;33.80;67.20
18575;DHT22;9417;16.484;102.872;2023-07-13T04:52:32;33.90;66.40
18575;DHT22;9417;16.484;102.872;2023-07-13T04:54:41;33.80;64.60
18575;DHT22;9417;16.484;102.872;2023-07-13T04:56:48;33.80;65.10
18575;DHT22;9417;16.484;102.872;2023-07-13T04:58:55;33.80;65.10
18575;DHT22;9417;16.484;102.872;2023-07-13T05:01:04;33.90;65.30
18575;DHT22;9417;16.484;102.872;2023-07-13T05:03:12;34.00;65.70
18575;DHT22;9417;16.484;102.872;2023-07-13T05:05:20;33.80;66.10
18575;DHT22;9417;16.484;102.872;2023-07-13T05:07:27;33.80;66.90
18575;DHT22;9417;16.484;102.872;2023-07-13T05:09:34;33.90;67.00
18575;DHT22;9417;16.484;102.872;2023-07-13T05:11:48;34.00;65.20
18575;DHT22;9417;16.484;102.872;2023-07-13T05:13:55;33.80;64.60
18575;DHT22;9417;16.484;102.872;2023-07-13T05:16:04;33.70;64.10
18575;DHT22;9417;16.484;102.872;2023-07-13T05:18:12;33.60;64.50
18575;DHT22;9417;16.484;102.872;2023-07-13T05:20:20;33.60;65.70
18575;DHT22;9417;16.484;102.872;2023-07-13T05:22:27;33.80;65.00
18575;DHT22;9417;16.484;102.872;2023-07-13T05:24:34;33.80;65.90
18575;DHT22;9417;16.484;102.872;2023-07-13T05:26:41;33.80;65.20
18575;DHT22;9417;16.484;102.872;2023-07-13T05:28:50;33.90;66.70
18575;DHT22;9417;16.484;102.872;2023-07-13T05:30:57;34.10;65.30
18575;DHT22;9417;16.484;102.872;2023-07-13T05:33:05;34.20;65.60
18575;DHT22;9417;16.484;102.872;2023-07-13T05:35:12;34.20;63.30
18575;DHT22;9417;16.484;102.872;2023-07-13T05:37:20;34.30;65.10
18575;DHT22;9417;16.484;102.872;2023-07-13T05:39:27;34.30;64.50
18575;DHT22;9417;16.484;102.872;2023-07-13T05:41:35;34.30;63.50
18575;DHT22;9417;16.484;102.872;2023-07-13T05:43:42;34.30;63.20
18575;DHT22;9417;16.484;102.872;2023-07-13T05:45:52;34.20;63.90
18575;DHT22;9417;16.484;102.872;2023-07-13T05:48:00;34.30;63.40
18575;DHT22;9417;16.484;102.872;2023-07-13T05:50:08;34.40;64.50
18575;DHT22;9417;16.484;102.872;2023-07-13T05:52:15;34.40;63.10
18575;DHT22;9417;16.484;102.872;2023-07-13T05:54:23;34.50;63.60
18575;DHT22;9417;16.484;102.872;2023-07-13T05:56:30;34.60;64.10
18575;DHT22;9417;16.484;102.872;2023-07-13T05:58:37;34.70;62.30
18575;DHT22;9417;16.484;102.872;2023-07-13T06:00:44;34.80;64.00
18575;DHT22;9417;16.484;102.872;2023-07-13T06:02:55;34.70;62.30
18575;DHT22;9417;16.484;102.872;2023-07-13T06:05:02;34.60;61.80
18575;DHT22;9417;16.484;102.872;2023-07-13T06:07:10;34.60;64.40
18575;DHT22;9417;16.484;102.872;2023-07-13T06:09:17;34.70;63.10
18575;DHT22;9417;16.484;102.872;2023-07-13T06:11:26;34.80;61.80
18575;DHT22;9417;16.484;102.872;2023-07-13T06:13:34;35.00;62.40
18575;DHT22;9417;16.484;102.872;2023-07-13T06:15:42;35.00;60.90
18575;DHT22;9417;16.484;102.872;2023-07-13T06:17:49;34.90;61.40
18575;DHT22;9417;16.484;102.872;2023-07-13T06:19:59;34.70;62.40
18575;DHT22;9417;16.484;102.872;2023-07-13T06:22:06;34.50;63.70
18575;DHT22;9417;16.484;102.872;2023-07-13T06:24:13;34.40;64.30
18575;DHT22;9417;16.484;102.872;2023-07-13T06:26:21;34.40;64.40
18575;DHT22;9417;16.484;102.872;2023-07-13T06:28:28;34.30;65.00
18575;DHT22;9417;16.484;102.872;2023-07-13T06:30:38;34.30;64.30
18575;DHT22;9417;16.484;102.872;2023-07-13T06:32:45;34.30;65.10
18575;DHT22;9417;16.484;102.872;2023-07-13T06:34:53;34.10;65.30
18575;DHT22;9417;16.484;102.872;2023-07-13T06:37:02;34.00;65.80
18575;DHT22;9417;16.484;102.872;2023-07-13T06:39:09;33.90;65.70
18575;DHT22;9417;16.484;102.872;2023-07-13T06:41:16;33.60;63.60
18575;DHT22;9417;16.484;102.872;2023-07-13T06:43:23;33.40;63.40
18575;DHT22;9417;16.484;102.872;2023-07-13T06:45:32;33.10;62.30
18575;DHT22;9417;16.484;102.872;2023-07-13T06:47:39;32.90;63.90
18575;DHT22;9417;16.484;102.872;2023-07-13T06:49:46;32.80;64.60
18575;DHT22;9417;16.484;102.872;2023-07-13T06:51:53;32.60;64.60
18575;DHT22;9417;16.484;102.872;2023-07-13T06:54:02;32.50;65.20
18575;DHT22;9417;16.484;102.872;2023-07-13T06:56:10;32.50;66.30
18575;DHT22;9417;16.484;102.872;2023-07-13T06:58:18;32.40;66.50
18575;DHT22;9417;16.484;102.872;2023-07-13T07:00:25;32.30;66.60
18575;DHT22;9417;16.484;102.872;2023-07-13T07:02:32;32.30;66.80
18575;DHT22;9417;16.484;102.872;2023-07-13T07:04:38;32.20;67.40
18575;DHT22;9417;16.484;102.872;2023-07-13T07:06:45;32.30;67.70
18575;DHT22;9417;16.484;102.872;2023-07-13T07:08:52;32.20;67.70
18575;DHT22;9417;16.484;102.872;2023-07-13T07:11:01;32.20;68.40
18575;DHT22;9417;16.484;102.872;2023-07-13T07:13:07;32.20;68.80
18575;DHT22;9417;16.484;102.872;2023-07-13T07:15:14;32.20;68.50
18575;DHT22;9417;16.484;102.872;2023-07-13T07:17:21;32.30;68.10
18575;DHT22;9417;16.484;102.872;2023-07-13T07:19:30;32.30;67.70
18575;DHT22;9417;16.484;102.872;2023-07-13T07:21:39;32.30;67.30
18575;DHT22;9417;16.484;102.872;2023-07-13T07:23:46;32.40;67.40
18575;DHT22;9417;16.484;102.872;2023-07-13T07:25:54;32.40;67.30
18575;DHT22;9417;16.484;102.872;2023-07-13T07:28:03;32.40;67.10
18575;DHT22;9417;16.484;102.872;2023-07-13T07:30:12;32.40;66.80
18575;DHT22;9417;16.484;102.872;2023-07-13T07:32:21;32.20;66.00
18575;DHT22;9417;16.484;102.872;2023-07-13T07:34:31;32.10;67.20
18575;DHT22;9417;16.484;102.872;2023-07-13T07:36:38;32.00;67.40
18575;DHT22;9417;16.484;102.872;2023-07-13T07:38:48;31.90;67.80
18575;DHT22;9417;16.484;102.872;2023-07-13T07:40:55;31.80;68.00
18575;DHT22;9417;16.484;102.872;2023-07-13T07:43:06;31.80;68.30
18575;DHT22;9417;16.484;102.872;2023-07-13T07:45:14;31.70;68.90
18575;DHT22;9417;16.484;102.872;2023-07-13T07:47:21;31.60;69.40
18575;DHT22;9417;16.484;102.872;2023-07-13T07:49:29;31.60;69.70
18575;DHT22;9417;16.484;102.872;2023-07-13T07:51:36;31.50;69.90
18575;DHT22;9417;16.484;102.872;2023-07-13T07:53:44;31.40;70.00
18575;DHT22;9417;16.484;102.872;2023-07-13T07:55:51;31.30;70.30
18575;DHT22;9417;16.484;102.872;2023-07-13T07:58:20;31.20;70.60
18575;DHT22;9417;16.484;102.872;2023-07-13T08:00:29;31.10;71.10
18575;DHT22;9417;16.484;102.872;2023-07-13T08:02:57;31.00;71.40
18575;DHT22;9417;16.484;102.872;2023-07-13T08:05:24;31.00;71.90
18575;DHT22;9417;16.484;102.872;2023-07-13T08:07:34;31.00;72.20
18575;DHT22;9417;16.484;102.872;2023-07-13T08:09:41;30.90;72.40
18575;DHT22;9417;16.484;102.872;2023-07-13T08:11:48;30.90;72.90
18575;DHT22;9417;16.484;102.872;2023-07-13T08:14:01;30.80;73.10
18575;DHT22;9417;16.484;102.872;2023-07-13T08:16:08;30.80;73.20
18575;DHT22;9417;16.484;102.872;2023-07-13T08:18:16;30.80;73.10
18575;DHT22;9417;16.484;102.872;2023-07-13T08:20:23;30.70;73.50
18575;DHT22;9417;16.484;102.872;2023-07-13T08:22:31;30.60;74.00
18575;DHT22;9417;16.484;102.872;2023-07-13T08:24:38;30.40;74.40
18575;DHT22;9417;16.484;102.872;2023-07-13T08:26:47;30.40;74.50
18575;DHT22;9417;16.484;102.872;2023-07-13T08:28:54;30.40;74.90
18575;DHT22;9417;16.484;102.872;2023-07-13T08:31:04;30.30;75.00
18575;DHT22;9417;16.484;102.872;2023-07-13T08:33:12;30.30;75.00
18575;DHT22;9417;16.484;102.872;2023-07-13T08:35:19;30.20;75.40
18575;DHT22;9417;16.484;102.872;2023-07-13T08:37:26;30.20;75.70
18575;DHT22;9417;16.484;102.872;2023-07-13T08:39:34;30.20;76.10
18575;DHT22;9417;16.484;102.872;2023-07-13T08:41:41;30.20;76.60
18575;DHT22;9417;16.484;102.872;2023-07-13T08:43:50;30.20;77.10
18575;DHT22;9417;16.484;102.872;2023-07-13T08:46:02;30.20;77.20
18575;DHT22;9417;16.484;102.872;2023-07-13T08:48:15;30.20;77.30
18575;DHT22;9417;16.484;102.872;2023-07-13T08:50:30;30.20;77.20
18575;DHT22;9417;16.484;102.872;2023-07-13T08:52:57;30.10;76.90
18575;DHT22;9417;16.484;102.872;2023-07-13T08:55:09;30.00;76.90
18575;DHT22;9417;16.484;102.872;2023-07-13T08:57:21;30.00;77.00
18575;DHT22;9417;16.484;102.872;2023-07-13T08:59:30;30.00;77.30
18575;DHT22;9417;16.484;102.872;2023-07-13T09:01:50;30.00;77.70
18575;DHT22;9417;16.484;102.872;2023-07-13T09:04:06;30.00;77.80
18575;DHT22;9417;16.484;102.872;2023-07-13T09:06:15;30.00;77.80
18575;DHT22;9417;16.484;102.872;2023-07-13T09:08:38;30.00;77.80
18575;DHT22;9417;16.484;102.872;2023-07-13T09:10:52;30.00;77.70
18575;DHT22;9417;16.484;102.872;2023-07-13T09:13:09;29.90;77.90
18575;DHT22;9417;16.484;102.872;2023-07-13T09:15:31;29.90;77.90
18575;DHT22;9417;16.484;102.872;2023-07-13T09:17:44;29.90;78.00
18575;DHT22;9417;16.484;102.872;2023-07-13T09:19:58;29.90;78.30
18575;DHT22;9417;16.484;102.872;2023-07-13T09:22:16;29.80;78.80
18575;DHT22;9417;16.484;102.872;2023-07-13T09:24:31;29.70;79.40
18575;DHT22;9417;16.484;102.872;2023-07-13T09:26:41;29.70;79.50
18575;DHT22;9417;16.484;102.872;2023-07-13T09:28:51;29.60;79.80
18575;DHT22;9417;16.484;102.872;2023-07-13T09:31:03;29.70;80.20
18575;DHT22;9417;16.484;102.872;2023-07-13T09:33:13;29.70;80.60
18575;DHT22;9417;16.484;102.872;2023-07-13T09:35:23;29.70;80.60
18575;DHT22;9417;16.484;102.872;2023-07-13T09:37:32;29.70;80.40
18575;DHT22;9417;16.484;102.872;2023-07-13T09:39:41;29.70;80.20
18575;DHT22;9417;16.484;102.872;2023-07-13T09:41:53;29.80;80.20
18575;DHT22;9417;16.484;102.872;2023-07-13T09:44:06;29.80;80.30
18575;DHT22;9417;16.484;102.872;2023-07-13T09:46:21;29.80;80.50
18575;DHT22;9417;16.484;102.872;2023-07-13T09:48:35;29.80;80.90
18575;DHT22;9417;16.484;102.872;2023-07-13T09:50:43;29.70;81.20
18575;DHT22;9417;16.484;102.872;2023-07-13T09:52:50;29.70;81.50
18575;DHT22;9417;16.484;102.872;2023-07-13T09:54:59;29.70;81.70
18575;DHT22;9417;16.484;102.872;2023-07-13T09:57:14;29.70;81.70
18575;DHT22;9417;16.484;102.872;2023-07-13T09:59:23;29.70;81.50
18575;DHT22;9417;16.484;102.872;2023-07-13T10:01:35;29.70;81.30
18575;DHT22;9417;16.484;102.872;2023-07-13T10:03:54;29.70;81.20
18575;DHT22;9417;16.484;102.872;2023-07-13T10:06:11;29.70;81.40
18575;DHT22;9417;16.484;102.872;2023-07-13T10:08:22;29.70;81.50
18575;DHT22;9417;16.484;102.872;2023-07-13T10:10:30;29.60;81.50
18575;DHT22;9417;16.484;102.872;2023-07-13T10:12:37;29.70;81.50
18575;DHT22;9417;16.484;102.872;2023-07-13T10:14:45;29.70;81.50
18575;DHT22;9417;16.484;102.872;2023-07-13T10:16:58;29.60;81.50
18575;DHT22;9417;16.484;102.872;2023-07-13T10:19:13;29.60;81.60
18575;DHT22;9417;16.484;102.872;2023-07-13T10:21:22;29.60;81.40
18575;DHT22;9417;16.484;102.872;2023-07-13T10:23:39;29.60;81.40
18575;DHT22;9417;16.484;102.872;2023-07-13T10:25:46;29.60;81.40
18575;DHT22;9417;16.484;102.872;2023-07-13T10:28:00;29.60;81.50
18575;DHT22;9417;16.484;102.872;2023-07-13T10:30:14;29.60;81.70
18575;DHT22;9417;16.484;102.872;2023-07-13T10:32:25;29.50;81.90
18575;DHT22;9417;16.484;102.872;2023-07-13T10:34:34;29.40;82.30
18575;DHT22;9417;16.484;102.872;2023-07-13T10:36:43;29.40;82.20
18575;DHT22;9417;16.484;102.872;2023-07-13T10:38:52;29.40;82.00
18575;DHT22;9417;16.484;102.872;2023-07-13T10:41:03;29.40;81.90
18575;DHT22;9417;16.484;102.872;2023-07-13T10:43:15;29.40;81.60
18575;DHT22;9417;16.484;102.872;2023-07-13T10:45:24;29.40;81.30
18575;DHT22;9417;16.484;102.872;2023-07-13T10:47:32;29.40;81.50
18575;DHT22;9417;16.484;102.872;2023-07-13T10:49:42;29.40;81.50
18575;DHT22;9417;16.484;102.872;2023-07-13T10:51:49;29.50;81.40
18575;DHT22;9417;16.484;102.872;2023-07-13T10:54:15;29.50;81.30
18575;DHT22;9417;16.484;102.872;2023-07-13T10:56:28;29.50;81.20
18575;DHT22;9417;16.484;102.872;2023-07-13T10:58:37;29.50;81.50
18575;DHT22;9417;16.484;102.872;2023-07-13T11:00:49;29.50;81.60
18575;DHT22;9417;16.484;102.872;2023-07-13T11:02:58;29.50;81.70
18575;DHT22;9417;16.484;102.872;2023-07-13T11:05:25;29.40;81.80
18575;DHT22;9417;16.484;102.872;2023-07-13T11:07:54;29.40;81.80
18575;DHT22;9417;16.484;102.872;2023-07-13T11:10:05;29.30;81.80
18575;DHT22;9417;16.484;102.872;2023-07-13T11:12:29;29.20;82.10
18575;DHT22;9417;16.484;102.872;2023-07-13T11:15:09;29.10;82.40
18575;DHT22;9417;16.484;102.872;2023-07-13T11:17:38;29.10;82.80
18575;DHT22;9417;16.484;102.872;2023-07-13T11:19:53;29.00;83.40
18575;DHT22;9417;16.484;102.872;2023-07-13T11:22:13;29.00;83.30
18575;DHT22;9417;16.484;102.872;2023-07-13T11:24:19;29.00;83.50
18575;DHT22;9417;16.484;102.872;2023-07-13T11:26:43;29.00;83.90
18575;DHT22;9417;16.484;102.872;2023-07-13T11:28:51;29.10;84.40
18575;DHT22;9417;16.484;102.872;2023-07-13T11:31:14;29.00;84.20
18575;DHT22;9417;16.484;102.872;2023-07-13T11:33:25;28.90;84.30
18575;DHT22;9417;16.484;102.872;2023-07-13T11:35:35;28.80;84.60
18575;DHT22;9417;16.484;102.872;2023-07-13T11:37:45;28.80;84.80
18575;DHT22;9417;16.484;102.872;2023-07-13T11:39:54;28.80;85.10
18575;DHT22;9417;16.484;102.872;2023-07-13T11:42:03;28.90;85.30
18575;DHT22;9417;16.484;102.872;2023-07-13T11:44:14;28.90;85.10
18575;DHT22;9417;16.484;102.872;2023-07-13T11:46:23;28.80;84.80
18575;DHT22;9417;16.484;102.872;2023-07-13T11:48:30;28.90;84.80
18575;DHT22;9417;16.484;102.872;2023-07-13T11:50:38;28.80;85.10
18575;DHT22;9417;16.484;102.872;2023-07-13T11:52:47;28.90;85.20
18575;DHT22;9417;16.484;102.872;2023-07-13T11:54:56;28.80;85.40
18575;DHT22;9417;16.484;102.872;2023-07-13T11:57:21;28.90;85.40
18575;DHT22;9417;16.484;102.872;2023-07-13T11:59:30;28.90;85.50
18575;DHT22;9417;16.484;102.872;2023-07-13T12:01:43;28.90;85.40
18575;DHT22;9417;16.484;102.872;2023-07-13T12:03:51;28.90;85.40
18575;DHT22;9417;16.484;102.872;2023-07-13T12:06:01;28.90;85.40
18575;DHT22;9417;16.484;102.872;2023-07-13T12:08:15;28.90;85.30
18575;DHT22;9417;16.484;102.872;2023-07-13T12:10:28;28.90;85.40
18575;DHT22;9417;16.484;102.872;2023-07-13T12:12:37;28.90;85.50
18575;DHT22;9417;16.484;102.872;2023-07-13T12:14:44;28.90;85.60
18575;DHT22;9417;16.484;102.872;2023-07-13T12:16:52;28.90;85.60
18575;DHT22;9417;16.484;102.872;2023-07-13T12:18:59;28.90;85.70
18575;DHT22;9417;16.484;102.872;2023-07-13T12:21:13;28.90;85.80
18575;DHT22;9417;16.484;102.872;2023-07-13T12:23:25;28.90;85.90
18575;DHT22;9417;16.484;102.872;2023-07-13T12:25:35;28.90;85.90
18575;DHT22;9417;16.484;102.872;2023-07-13T12:27:42;28.90;85.70
18575;DHT22;9417;16.484;102.872;2023-07-13T12:29:56;28.90;85.40
18575;DHT22;9417;16.484;102.872;2023-07-13T12:32:09;28.80;85.10
18575;DHT22;9417;16.484;102.872;2023-07-13T12:34:18;28.80;85.10
18575;DHT22;9417;16.484;102.872;2023-07-13T12:36:25;28.80;84.90
18575;DHT22;9417;16.484;102.872;2023-07-13T12:38:35;28.80;84.90
18575;DHT22;9417;16.484;102.872;2023-07-13T12:40:42;28.80;84.90
18575;DHT22;9417;16.484;102.872;2023-07-13T12:42:51;28.70;85.00
18575;DHT22;9417;16.484;102.872;2023-07-13T12:45:00;28.70;85.10
18575;DHT22;9417;16.484;102.872;2023-07-13T12:47:13;28.70;85.30
18575;DHT22;9417;16.484;102.872;2023-07-13T12:49:24;28.70;85.40
18575;DHT22;9417;16.484;102.872;2023-07-13T12:51:30;28.70;85.60
18575;DHT22;9417;16.484;102.872;2023-07-13T12:53:41;28.60;85.90
18575;DHT22;9417;16.484;102.872;2023-07-13T12:55:52;28.60;86.10
18575;DHT22;9417;16.484;102.872;2023-07-13T12:58:00;28.60;86.30
18575;DHT22;9417;16.484;102.872;2023-07-13T13:00:30;28.60;86.40
18575;DHT22;9417;16.484;102.872;2023-07-13T13:02:38;28.60;86.60
18575;DHT22;9417;16.484;102.872;2023-07-13T13:04:46;28.60;86.60
18575;DHT22;9417;16.484;102.872;2023-07-13T13:07:05;28.60;86.70
18575;DHT22;9417;16.484;102.872;2023-07-13T13:09:16;28.60;86.90
18575;DHT22;9417;16.484;102.872;2023-07-13T13:11:25;28.60;87.00
18575;DHT22;9417;16.484;102.872;2023-07-13T13:13:31;28.60;87.10
18575;DHT22;9417;16.484;102.872;2023-07-13T13:15:38;28.60;87.10
18575;DHT22;9417;16.484;102.872;2023-07-13T13:17:45;28.60;87.40
18575;DHT22;9417;16.484;102.872;2023-07-13T13:19:53;28.50;87.50
18575;DHT22;9417;16.484;102.872;2023-07-13T13:22:01;28.50;87.80
18575;DHT22;9417;16.484;102.872;2023-07-13T13:24:12;28.50;88.00
18575;DHT22;9417;16.484;102.872;2023-07-13T13:26:22;28.50;88.30